RYR7WK EGHH-LEPA
Flight info
| Callsign | RYR7WK |
|---|---|
| Flight time | N/A |
| Altitude | 35000 |
| Route | SAM Y8 GWC UN859 SOPIL DCT BALAN DCT EVPOK DCT NARAK DCT GAI DCT LOMRA DCT ROCAN DCT IBRAP N13 LORES |
| Aircraft | B738/M-SDE2E3FGHIRWXY/LB1 |
Departure
| Time | 2026-05-08 09:05 |
|---|---|
| Airport | Bournemouth Airport (EGHH) |
Arrival
| Time | N/A |
|---|---|
| Airport | Palma de Mallorca Airport (LEPA) |
| Time | Latitude | Longitude | Altitude | Speed | Heading |
|---|---|---|---|---|---|
| 2026-05-08 08:22 | 50.77828 | -1.83359 | 44 ft | 0 kts | 86° |
| 2026-05-08 08:56 | 50.77827 | -1.83371 | 45 ft | 4 kts | 86° |
| 2026-05-08 08:57 | 50.77826 | -1.83413 | 40 ft | 4 kts | 86° |
| 2026-05-08 08:57 | 50.77826 | -1.83449 | 40 ft | 4 kts | 112° |
| 2026-05-08 08:57 | 50.77841 | -1.83473 | 42 ft | 4 kts | 171° |
| 2026-05-08 08:57 | 50.77858 | -1.83476 | 41 ft | 1 kts | 176° |
| 2026-05-08 08:58 | 50.77860 | -1.83476 | 41 ft | 0 kts | 176° |
| 2026-05-08 09:00 | 50.77851 | -1.83475 | 42 ft | 3 kts | 176° |
| 2026-05-08 09:00 | 50.77818 | -1.83472 | 45 ft | 7 kts | 176° |
| 2026-05-08 09:00 | 50.77759 | -1.83466 | 43 ft | 10 kts | 178° |
| 2026-05-08 09:00 | 50.77680 | -1.83477 | 45 ft | 13 kts | 182° |
| 2026-05-08 09:01 | 50.77596 | -1.83519 | 45 ft | 13 kts | 223° |
| 2026-05-08 09:01 | 50.77595 | -1.83654 | 45 ft | 14 kts | 300° |
| 2026-05-08 09:01 | 50.77655 | -1.83793 | 44 ft | 16 kts | 303° |
| 2026-05-08 09:01 | 50.77719 | -1.83954 | 43 ft | 18 kts | 300° |
| 2026-05-08 09:02 | 50.77779 | -1.84115 | 44 ft | 17 kts | 300° |
| 2026-05-08 09:02 | 50.77837 | -1.84273 | 43 ft | 16 kts | 301° |
| 2026-05-08 09:02 | 50.77894 | -1.84423 | 41 ft | 16 kts | 300° |
| 2026-05-08 09:02 | 50.77945 | -1.84571 | 40 ft | 15 kts | 290° |
| 2026-05-08 09:03 | 50.77930 | -1.84727 | 45 ft | 14 kts | 255° |
| 2026-05-08 09:03 | 50.77904 | -1.84880 | 44 ft | 15 kts | 254° |
| 2026-05-08 09:03 | 50.77878 | -1.85036 | 42 ft | 14 kts | 255° |
| 2026-05-08 09:03 | 50.77839 | -1.85151 | 43 ft | 6 kts | 277° |
| 2026-05-08 09:04 | 50.77870 | -1.85160 | 43 ft | 5 kts | 47° |
| 2026-05-08 09:04 | 50.77874 | -1.85093 | 43 ft | 8 kts | 86° |
| 2026-05-08 09:04 | 50.77936 | -1.84694 | 43 ft | 79 kts | 75° |
| 2026-05-08 09:04 | 50.78145 | -1.83435 | 48 ft | 154 kts | 75° |
| 2026-05-08 09:05 | 50.78507 | -1.81651 | 595 ft | 179 kts | 69° |
| 2026-05-08 09:05 | 50.79125 | -1.79805 | 1425 ft | 199 kts | 64° |
| 2026-05-08 09:05 | 50.79818 | -1.77915 | 2222 ft | 210 kts | 63° |
| 2026-05-08 09:05 | 50.80595 | -1.75794 | 2505 ft | 233 kts | 63° |
| 2026-05-08 09:06 | 50.81429 | -1.73524 | 3062 ft | 242 kts | 62° |
| 2026-05-08 09:06 | 50.82306 | -1.71128 | 3461 ft | 263 kts | 62° |
| 2026-05-08 09:06 | 50.83233 | -1.68586 | 4261 ft | 268 kts | 62° |
| 2026-05-08 09:06 | 50.84169 | -1.66015 | 5172 ft | 272 kts | 62° |
| 2026-05-08 09:07 | 50.85120 | -1.63395 | 6008 ft | 277 kts | 62° |
| 2026-05-08 09:07 | 50.86084 | -1.60731 | 6868 ft | 280 kts | 62° |
| 2026-05-08 09:07 | 50.87060 | -1.58029 | 7731 ft | 284 kts | 63° |
| 2026-05-08 09:07 | 50.88049 | -1.55288 | 8570 ft | 288 kts | 62° |
| 2026-05-08 09:08 | 50.89045 | -1.52519 | 9415 ft | 292 kts | 62° |
| 2026-05-08 09:08 | 50.90056 | -1.49707 | 10210 ft | 296 kts | 62° |
| 2026-05-08 09:08 | 50.91105 | -1.46782 | 10633 ft | 317 kts | 62° |
| 2026-05-08 09:08 | 50.92237 | -1.43622 | 10880 ft | 341 kts | 62° |
| 2026-05-08 09:09 | 50.93423 | -1.40309 | 11486 ft | 349 kts | 62° |
| 2026-05-08 09:09 | 50.94553 | -1.36870 | 12199 ft | 353 kts | 71° |
| 2026-05-08 09:09 | 50.95026 | -1.33064 | 12987 ft | 352 kts | 91° |
| 2026-05-08 09:09 | 50.94726 | -1.29226 | 13770 ft | 352 kts | 106° |
| 2026-05-08 09:10 | 50.94093 | -1.25460 | 14442 ft | 356 kts | 108° |
| 2026-05-08 09:10 | 50.93418 | -1.21657 | 15132 ft | 359 kts | 108° |
| 2026-05-08 09:10 | 50.92739 | -1.17832 | 15824 ft | 363 kts | 108° |
| 2026-05-08 09:10 | 50.92060 | -1.13962 | 16507 ft | 366 kts | 107° |
| 2026-05-08 09:11 | 50.91385 | -1.10054 | 17208 ft | 369 kts | 107° |
| 2026-05-08 09:11 | 50.90708 | -1.06104 | 17907 ft | 373 kts | 107° |
| 2026-05-08 09:11 | 50.90028 | -1.02116 | 18572 ft | 377 kts | 107° |
| 2026-05-08 09:11 | 50.89341 | -0.98084 | 19156 ft | 381 kts | 107° |
| 2026-05-08 09:12 | 50.88646 | -0.94013 | 19760 ft | 384 kts | 107° |
| 2026-05-08 09:12 | 50.87946 | -0.89916 | 20335 ft | 387 kts | 107° |
| 2026-05-08 09:12 | 50.87237 | -0.85779 | 20900 ft | 391 kts | 107° |
| 2026-05-08 09:12 | 50.86520 | -0.81618 | 21469 ft | 394 kts | 107° |
| 2026-05-08 09:13 | 50.85504 | -0.77592 | 21996 ft | 395 kts | 122° |
| 2026-05-08 09:13 | 50.83825 | -0.74181 | 22555 ft | 395 kts | 137° |
| 2026-05-08 09:13 | 50.81648 | -0.71540 | 23109 ft | 395 kts | 148° |
| 2026-05-08 09:13 | 50.79323 | -0.69194 | 23631 ft | 399 kts | 149° |
| 2026-05-08 09:14 | 50.76959 | -0.66851 | 24039 ft | 403 kts | 149° |
| 2026-05-08 09:14 | 50.74574 | -0.64489 | 24409 ft | 407 kts | 149° |
| 2026-05-08 09:14 | 50.72163 | -0.62087 | 24803 ft | 411 kts | 149° |
| 2026-05-08 09:14 | 50.69741 | -0.59659 | 25204 ft | 414 kts | 148° |
| 2026-05-08 09:15 | 50.67302 | -0.57201 | 25578 ft | 419 kts | 148° |
| 2026-05-08 09:15 | 50.64865 | -0.54741 | 25902 ft | 423 kts | 148° |
| 2026-05-08 09:15 | 50.62341 | -0.52192 | 26254 ft | 428 kts | 148° |
| 2026-05-08 09:15 | 50.59825 | -0.49651 | 26625 ft | 431 kts | 148° |
| 2026-05-08 09:16 | 50.57290 | -0.47094 | 27005 ft | 435 kts | 148° |
| 2026-05-08 09:16 | 50.54764 | -0.44550 | 27316 ft | 439 kts | 148° |
| 2026-05-08 09:16 | 50.52173 | -0.41943 | 27635 ft | 444 kts | 148° |
| 2026-05-08 09:16 | 50.49567 | -0.39325 | 27960 ft | 447 kts | 148° |
| 2026-05-08 09:17 | 50.46935 | -0.36685 | 28291 ft | 450 kts | 148° |
| 2026-05-08 09:17 | 50.44282 | -0.34027 | 28609 ft | 454 kts | 148° |
| 2026-05-08 09:17 | 50.41611 | -0.31356 | 28896 ft | 458 kts | 148° |
| 2026-05-08 09:17 | 50.38905 | -0.28653 | 29042 ft | 465 kts | 148° |
| 2026-05-08 09:18 | 50.36162 | -0.25916 | 29321 ft | 469 kts | 148° |
| 2026-05-08 09:18 | 50.33402 | -0.23166 | 29657 ft | 471 kts | 148° |
| 2026-05-08 09:18 | 50.30633 | -0.20412 | 29953 ft | 474 kts | 148° |
| 2026-05-08 09:18 | 50.27835 | -0.17631 | 30213 ft | 477 kts | 148° |
| 2026-05-08 09:19 | 50.25026 | -0.14845 | 30434 ft | 480 kts | 148° |
| 2026-05-08 09:19 | 50.22201 | -0.12045 | 30707 ft | 482 kts | 148° |
| 2026-05-08 09:19 | 50.19368 | -0.09242 | 31031 ft | 482 kts | 148° |
| 2026-05-08 09:19 | 50.16530 | -0.06437 | 31238 ft | 485 kts | 148° |
| 2026-05-08 09:20 | 50.13660 | -0.03606 | 31419 ft | 488 kts | 148° |
| 2026-05-08 09:20 | 50.10740 | -0.00929 | 31841 ft | 483 kts | 156° |
| 2026-05-08 09:20 | 50.07715 | 0.01016 | 33035 ft | 460 kts | 165° |
| 2026-05-08 09:20 | 50.04666 | 0.02304 | 33676 ft | 452 kts | 169° |
| 2026-05-08 09:21 | 49.98469 | 0.04616 | 33809 ft | 464 kts | 169° |
| 2026-05-08 09:22 | 49.79549 | 0.11926 | 35053 ft | 470 kts | 169° |
| 2026-05-08 09:23 | 49.76377 | 0.13162 | 35070 ft | 470 kts | 169° |
| 2026-05-08 09:23 | 49.70064 | 0.15617 | 35060 ft | 465 kts | 169° |
| 2026-05-08 09:24 | 49.63807 | 0.18089 | 35073 ft | 464 kts | 168° |
| 2026-05-08 09:24 | 49.57574 | 0.20630 | 35078 ft | 463 kts | 168° |
| 2026-05-08 09:25 | 49.51345 | 0.23162 | 35051 ft | 463 kts | 169° |
| 2026-05-08 09:25 | 49.45106 | 0.25678 | 35075 ft | 464 kts | 169° |
| 2026-05-08 09:26 | 49.38847 | 0.28193 | 35091 ft | 467 kts | 169° |
| 2026-05-08 09:26 | 49.32541 | 0.30722 | 35081 ft | 469 kts | 169° |
| 2026-05-08 09:27 | 49.26216 | 0.33313 | 35070 ft | 472 kts | 168° |
| 2026-05-08 09:27 | 49.19870 | 0.36000 | 35055 ft | 474 kts | 168° |
| 2026-05-08 09:28 | 49.13497 | 0.38691 | 35040 ft | 476 kts | 168° |
| 2026-05-08 09:28 | 49.07103 | 0.41370 | 35022 ft | 477 kts | 169° |
| 2026-05-08 09:29 | 49.00705 | 0.44039 | 35049 ft | 477 kts | 168° |
| 2026-05-08 09:29 | 48.94361 | 0.46680 | 35029 ft | 468 kts | 169° |
| 2026-05-08 09:30 | 48.88089 | 0.49282 | 35042 ft | 467 kts | 169° |
| 2026-05-08 09:30 | 48.81828 | 0.51872 | 35034 ft | 467 kts | 169° |
| 2026-05-08 09:31 | 48.75555 | 0.54424 | 35047 ft | 467 kts | 169° |
| 2026-05-08 09:31 | 48.69304 | 0.56852 | 35039 ft | 467 kts | 170° |
| 2026-05-08 09:32 | 48.63003 | 0.59294 | 35022 ft | 468 kts | 170° |
| 2026-05-08 09:32 | 48.56684 | 0.61756 | 35031 ft | 469 kts | 170° |
| 2026-05-08 09:33 | 48.50354 | 0.64226 | 35035 ft | 471 kts | 169° |
| 2026-05-08 09:33 | 48.44014 | 0.66803 | 35037 ft | 473 kts | 169° |
| 2026-05-08 09:34 | 48.37659 | 0.69401 | 35027 ft | 474 kts | 169° |
| 2026-05-08 09:34 | 48.31279 | 0.71987 | 35035 ft | 475 kts | 169° |
| 2026-05-08 09:35 | 48.24889 | 0.74564 | 35035 ft | 476 kts | 169° |
| 2026-05-08 09:35 | 48.19564 | 0.76676 | 35014 ft | 476 kts | 169° |
| 2026-05-08 09:36 | 48.13150 | 0.79192 | 35019 ft | 476 kts | 169° |
| 2026-05-08 09:36 | 48.06747 | 0.81701 | 35024 ft | 476 kts | 169° |
| 2026-05-08 09:37 | 48.00342 | 0.84209 | 35007 ft | 475 kts | 169° |
| 2026-05-08 09:37 | 47.93956 | 0.86705 | 35034 ft | 474 kts | 169° |
| 2026-05-08 09:38 | 47.87583 | 0.89189 | 35011 ft | 473 kts | 169° |
| 2026-05-08 09:38 | 47.81224 | 0.91660 | 35026 ft | 471 kts | 169° |
| 2026-05-08 09:39 | 47.74888 | 0.94112 | 35009 ft | 470 kts | 169° |
| 2026-05-08 09:39 | 47.68616 | 0.96532 | 35018 ft | 468 kts | 169° |
| 2026-05-08 09:40 | 47.62313 | 0.98959 | 35014 ft | 468 kts | 170° |
| 2026-05-08 09:40 | 47.56017 | 1.01378 | 35008 ft | 467 kts | 170° |
| 2026-05-08 09:41 | 47.49721 | 1.03792 | 35018 ft | 467 kts | 170° |
| 2026-05-08 09:41 | 47.43415 | 1.06090 | 35014 ft | 465 kts | 175° |
| 2026-05-08 09:42 | 47.37049 | 1.06437 | 35000 ft | 457 kts | 187° |
| 2026-05-08 09:42 | 47.30690 | 1.06175 | 35010 ft | 457 kts | 187° |
| 2026-05-08 09:43 | 47.24313 | 1.05980 | 35012 ft | 459 kts | 186° |
| 2026-05-08 09:43 | 47.17925 | 1.05835 | 35012 ft | 459 kts | 186° |
| 2026-05-08 09:44 | 47.11529 | 1.05698 | 35004 ft | 460 kts | 186° |
| 2026-05-08 09:44 | 47.05134 | 1.05557 | 35005 ft | 460 kts | 186° |
| 2026-05-08 09:45 | 46.98735 | 1.05372 | 34995 ft | 460 kts | 187° |
| 2026-05-08 09:45 | 46.92340 | 1.05080 | 34997 ft | 459 kts | 187° |
| 2026-05-08 09:46 | 46.85969 | 1.04784 | 35000 ft | 458 kts | 187° |
| 2026-05-08 09:46 | 46.79597 | 1.04503 | 35002 ft | 458 kts | 187° |
| 2026-05-08 09:47 | 46.73202 | 1.04226 | 35399 ft | 459 kts | 187° |
| 2026-05-08 09:47 | 46.70066 | 1.04093 | 35782 ft | 455 kts | 187° |
| 2026-05-08 09:47 | 46.66878 | 1.03958 | 36182 ft | 451 kts | 187° |
| 2026-05-08 09:47 | 46.63796 | 1.03827 | 36546 ft | 448 kts | 187° |
| 2026-05-08 09:48 | 46.60683 | 1.03692 | 36845 ft | 446 kts | 187° |
| 2026-05-08 09:48 | 46.57581 | 1.03557 | 37013 ft | 447 kts | 187° |
| 2026-05-08 09:48 | 46.54455 | 1.03421 | 36972 ft | 450 kts | 187° |
| 2026-05-08 09:49 | 46.48188 | 1.04240 | 36997 ft | 457 kts | 172° |
| 2026-05-08 09:49 | 46.42035 | 1.06376 | 36988 ft | 453 kts | 171° |
| 2026-05-08 09:50 | 46.35924 | 1.08512 | 36980 ft | 451 kts | 172° |
| 2026-05-08 09:50 | 46.29826 | 1.10578 | 36989 ft | 449 kts | 172° |
| 2026-05-08 09:51 | 46.23738 | 1.12604 | 36981 ft | 449 kts | 172° |
| 2026-05-08 09:51 | 46.17651 | 1.14620 | 36997 ft | 449 kts | 172° |
| 2026-05-08 09:52 | 46.11555 | 1.16635 | 36985 ft | 450 kts | 172° |
| 2026-05-08 09:52 | 46.05449 | 1.18651 | 36999 ft | 451 kts | 172° |
| 2026-05-08 09:53 | 45.99320 | 1.20670 | 36998 ft | 453 kts | 172° |
| 2026-05-08 09:53 | 45.93162 | 1.22694 | 36988 ft | 454 kts | 173° |
| 2026-05-08 09:54 | 45.86985 | 1.24721 | 36997 ft | 456 kts | 173° |
| 2026-05-08 09:54 | 45.80792 | 1.26748 | 36994 ft | 457 kts | 173° |
| 2026-05-08 09:55 | 45.74590 | 1.28773 | 36982 ft | 458 kts | 173° |
| 2026-05-08 09:55 | 45.68379 | 1.30797 | 36981 ft | 457 kts | 173° |
| 2026-05-08 09:56 | 45.62222 | 1.32799 | 36985 ft | 457 kts | 173° |
| 2026-05-08 09:56 | 45.56032 | 1.34807 | 36964 ft | 456 kts | 173° |
| 2026-05-08 09:57 | 45.46787 | 1.37798 | 36985 ft | 453 kts | 173° |
| 2026-05-08 09:57 | 45.40658 | 1.39775 | 36988 ft | 451 kts | 173° |
| 2026-05-08 09:58 | 45.34559 | 1.41738 | 36986 ft | 448 kts | 173° |
| 2026-05-08 09:58 | 45.28489 | 1.43688 | 36994 ft | 446 kts | 173° |
| 2026-05-08 09:59 | 45.22432 | 1.45629 | 36993 ft | 445 kts | 173° |
| 2026-05-08 09:59 | 45.16393 | 1.47560 | 36984 ft | 444 kts | 173° |
| 2026-05-08 10:00 | 45.10374 | 1.49481 | 36992 ft | 443 kts | 173° |
| 2026-05-08 10:00 | 45.04365 | 1.51395 | 36990 ft | 442 kts | 173° |
| 2026-05-08 10:01 | 44.98371 | 1.53299 | 36981 ft | 442 kts | 173° |
| 2026-05-08 10:01 | 44.92375 | 1.55200 | 36991 ft | 442 kts | 173° |
| 2026-05-08 10:02 | 44.86369 | 1.57100 | 36992 ft | 443 kts | 173° |
| 2026-05-08 10:02 | 44.80353 | 1.58999 | 36996 ft | 444 kts | 173° |
| 2026-05-08 10:03 | 44.74323 | 1.60899 | 36991 ft | 445 kts | 173° |
| 2026-05-08 10:03 | 44.68274 | 1.62801 | 36993 ft | 446 kts | 173° |
| 2026-05-08 10:04 | 44.62215 | 1.64702 | 36980 ft | 446 kts | 173° |
| 2026-05-08 10:04 | 44.56156 | 1.66600 | 36973 ft | 446 kts | 173° |
| 2026-05-08 10:05 | 44.50105 | 1.68491 | 36984 ft | 445 kts | 173° |
| 2026-05-08 10:05 | 44.44064 | 1.70374 | 36993 ft | 444 kts | 173° |
| 2026-05-08 10:06 | 44.38069 | 1.72240 | 36995 ft | 443 kts | 173° |
| 2026-05-08 10:06 | 44.32062 | 1.74106 | 36985 ft | 442 kts | 173° |
| 2026-05-08 10:07 | 44.26065 | 1.75779 | 36980 ft | 437 kts | 177° |
| 2026-05-08 10:07 | 44.20064 | 1.77053 | 36965 ft | 435 kts | 178° |
| 2026-05-08 10:08 | 44.14091 | 1.78308 | 36970 ft | 434 kts | 177° |
| 2026-05-08 10:08 | 44.08141 | 1.79604 | 36984 ft | 432 kts | 177° |
| 2026-05-08 10:09 | 44.02211 | 1.80908 | 36969 ft | 431 kts | 177° |
| 2026-05-08 10:09 | 43.96292 | 1.82205 | 36964 ft | 430 kts | 177° |
| 2026-05-08 10:10 | 43.90385 | 1.83076 | 36978 ft | 425 kts | 182° |
| 2026-05-08 10:10 | 43.84527 | 1.83553 | 36980 ft | 424 kts | 182° |
| 2026-05-08 10:11 | 43.78624 | 1.84052 | 36967 ft | 425 kts | 182° |
| 2026-05-08 10:11 | 43.72726 | 1.84603 | 36969 ft | 425 kts | 182° |
| 2026-05-08 10:12 | 43.66820 | 1.85175 | 36966 ft | 426 kts | 182° |
| 2026-05-08 10:12 | 43.60915 | 1.85748 | 36952 ft | 426 kts | 182° |
| 2026-05-08 10:13 | 43.55007 | 1.86319 | 36960 ft | 425 kts | 182° |
| 2026-05-08 10:13 | 43.49101 | 1.86888 | 36963 ft | 425 kts | 182° |
| 2026-05-08 10:14 | 43.43195 | 1.87456 | 36969 ft | 425 kts | 182° |
| 2026-05-08 10:14 | 43.37301 | 1.88022 | 36962 ft | 424 kts | 182° |
| 2026-05-08 10:15 | 43.31412 | 1.88587 | 36965 ft | 423 kts | 182° |
| 2026-05-08 10:15 | 43.25542 | 1.89152 | 36971 ft | 423 kts | 182° |
| 2026-05-08 10:16 | 43.19681 | 1.89716 | 36963 ft | 422 kts | 182° |
| 2026-05-08 10:16 | 43.13872 | 1.90273 | 36959 ft | 421 kts | 182° |